Time;durP1;ratioP1;P1;durP2;ratioP2;P2;SDS_P1;SDS_P2;PMS_P1;PMS_P2;Temp;Humidity;BMP_temperature;BMP_pressure;BME280_temperature;BME280_humidity;BME280_pressure;Samples;Min_cycle;Max_cycle;Signal;HPM_P1;HPM_P2
2021/04/08 00:02:23;;;;;;;19.50;5.95;;;;;;;;;;5092406;28;20709;-53
2021/04/08 00:04:50;;;;;;;15.07;4.78;;;;;;;;;;5091354;28;20203;-54
2021/04/08 00:07:20;;;;;;;9.13;4.55;;;;;;;;;;5090852;28;20231;-54
2021/04/08 00:09:46;;;;;;;11.27;5.22;;;;;;;;;;5074683;28;20193;-54
2021/04/08 00:12:13;;;;;;;8.50;5.50;;;;;;;;;;5091459;28;20172;-55
2021/04/08 00:14:39;;;;;;;13.57;4.97;;;;;;;;;;5092419;28;20207;-55
2021/04/08 00:17:05;;;;;;;15.18;4.10;;;;;;;;;;5092016;28;20179;-55
2021/04/08 00:19:32;;;;;;;6.65;4.05;;;;;;;;;;5090781;28;20220;-56
2021/04/08 00:21:58;;;;;;;12.82;4.88;;;;;;;;;;5090932;28;20173;-54
2021/04/08 00:24:24;;;;;;;12.27;5.20;;;;;;;;;;5091879;28;20214;-54
2021/04/08 00:26:51;;;;;;;9.10;5.05;;;;;;;;;;5091674;28;20587;-54
2021/04/08 00:29:17;;;;;;;7.10;5.15;;;;;;;;;;5091686;28;20185;-55
2021/04/08 00:31:44;;;;;;;12.10;4.75;;;;;;;;;;5090377;28;20564;-54
2021/04/08 00:34:10;;;;;;;15.35;5.88;;;;;;;;;;5091772;28;20245;-53
2021/04/08 00:36:37;;;;;;;10.65;5.65;;;;;;;;;;5091507;28;20176;-51
2021/04/08 00:39:05;;;;;;;21.33;6.13;;;;;;;;;;5090214;28;20189;-52
2021/04/08 00:41:32;;;;;;;15.32;5.97;;;;;;;;;;5091717;28;20169;-51
2021/04/08 00:43:59;;;;;;;12.32;6.30;;;;;;;;;;5090069;28;20180;-53
2021/04/08 00:46:25;;;;;;;13.70;7.25;;;;;;;;;;5089934;28;20203;-56
2021/04/08 00:48:52;;;;;;;19.42;9.43;;;;;;;;;;5092682;28;20201;-57
2021/04/08 00:51:19;;;;;;;14.65;7.70;;;;;;;;;;5092776;28;20204;-56
2021/04/08 00:53:46;;;;;;;21.75;10.13;;;;;;;;;;5091239;28;20183;-56
2021/04/08 00:56:13;;;;;;;17.88;8.73;;;;;;;;;;5091310;28;20169;-55
2021/04/08 00:58:40;;;;;;;18.40;8.27;;;;;;;;;;5092485;28;20205;-56
2021/04/08 01:01:07;;;;;;;14.52;8.40;;;;;;;;;;5091962;28;20230;-56
2021/04/08 01:03:34;;;;;;;17.33;9.73;;;;;;;;;;5090722;28;20172;-56
2021/04/08 01:06:00;;;;;;;15.48;9.15;;;;;;;;;;5090111;28;20213;-55
2021/04/08 01:08:26;;;;;;;12.60;8.43;;;;;;;;;;5089593;28;20189;-56
2021/04/08 01:10:53;;;;;;;13.55;9.25;;;;;;;;;;5092027;28;20441;-56
2021/04/08 01:13:20;;;;;;;16.92;8.10;;;;;;;;;;5096322;28;20169;-55
2021/04/08 01:15:46;;;;;;;13.05;7.75;;;;;;;;;;5093908;28;20196;-56
2021/04/08 01:18:13;;;;;;;16.48;8.15;;;;;;;;;;5093145;28;20525;-56
2021/04/08 01:20:51;;;;;;;17.63;9.30;;;;;;;;;;5094471;28;20244;-55
2021/04/08 01:23:32;;;;;;;19.33;9.00;;;;;;;;;;5093809;28;20176;-55
2021/04/08 01:26:10;;;;;;;20.98;9.10;;;;;;;;;;5094258;28;20682;-55
2021/04/08 01:28:37;;;;;;;15.75;8.48;;;;;;;;;;5099730;28;20192;-54
2021/04/08 01:31:06;;;;;;;21.48;8.40;;;;;;;;;;5093308;28;20169;-56
2021/04/08 01:33:46;;;;;;;21.40;9.00;;;;;;;;;;5099618;28;20219;-55
2021/04/08 01:36:19;;;;;;;15.32;8.43;;;;;;;;;;5096447;28;20505;-54
2021/04/08 01:38:49;;;;;;;13.93;7.63;;;;;;;;;;5091943;28;20243;-53
2021/04/08 01:41:17;;;;;;;15.88;7.55;;;;;;;;;;5090949;28;20230;-53
2021/04/08 01:43:45;;;;;;;13.13;7.75;;;;;;;;;;5092840;28;20676;-53
2021/04/08 01:46:12;;;;;;;10.65;8.27;;;;;;;;;;5094673;28;20192;-54
2021/04/08 01:48:38;;;;;;;10.50;7.15;;;;;;;;;;5094590;28;20196;-53
2021/04/08 01:51:05;;;;;;;19.77;8.10;;;;;;;;;;5094898;28;20573;-53
2021/04/08 01:53:37;;;;;;;14.68;7.70;;;;;;;;;;5094678;28;20157;-53
2021/04/08 01:56:04;;;;;;;11.93;7.38;;;;;;;;;;5094519;28;20234;-56
2021/04/08 01:58:30;;;;;;;15.48;7.68;;;;;;;;;;5094478;28;20248;-53
2021/04/08 02:00:57;;;;;;;8.77;6.53;;;;;;;;;;5094712;28;20177;-53
2021/04/08 02:03:25;;;;;;;18.67;8.15;;;;;;;;;;5094477;28;20223;-54
2021/04/08 02:05:51;;;;;;;15.27;7.43;;;;;;;;;;5094162;28;20280;-53
2021/04/08 02:08:18;;;;;;;12.20;7.57;;;;;;;;;;5094226;28;20261;-54
2021/04/08 02:10:44;;;;;;;17.25;7.90;;;;;;;;;;5093474;28;20532;-54
2021/04/08 02:13:11;;;;;;;16.08;8.32;;;;;;;;;;5094294;28;20168;-53
2021/04/08 02:15:38;;;;;;;16.35;8.40;;;;;;;;;;5094039;28;20170;-54
2021/04/08 02:18:04;;;;;;;17.63;8.45;;;;;;;;;;5094184;28;20213;-55
2021/04/08 02:20:32;;;;;;;19.02;7.80;;;;;;;;;;5094235;28;20223;-54
2021/04/08 02:23:00;;;;;;;13.43;7.55;;;;;;;;;;5094222;28;20170;-53
2021/04/08 02:25:28;;;;;;;15.57;7.07;;;;;;;;;;5093767;28;20684;-54
2021/04/08 02:27:55;;;;;;;12.75;6.97;;;;;;;;;;5094055;28;20165;-53
2021/04/08 02:30:22;;;;;;;18.02;9.00;;;;;;;;;;5093849;28;20253;-54
2021/04/08 02:32:48;;;;;;;18.17;7.88;;;;;;;;;;5094010;28;20162;-54
2021/04/08 02:35:18;;;;;;;17.42;7.82;;;;;;;;;;5093599;28;20162;-54
2021/04/08 02:37:44;;;;;;;15.45;8.10;;;;;;;;;;5093864;28;20181;-54
2021/04/08 02:40:11;;;;;;;22.02;8.38;;;;;;;;;;5093719;28;20169;-54
2021/04/08 02:42:37;;;;;;;12.45;7.90;;;;;;;;;;5093937;28;20177;-53
2021/04/08 02:45:04;;;;;;;30.40;9.18;;;;;;;;;;5093140;28;20252;-53
2021/04/08 02:47:30;;;;;;;18.83;9.93;;;;;;;;;;5093702;28;20652;-53
2021/04/08 02:49:56;;;;;;;18.67;8.30;;;;;;;;;;5093591;28;20193;-53
2021/04/08 02:52:25;;;;;;;23.80;7.82;;;;;;;;;;5093668;28;20214;-53
2021/04/08 02:55:00;;;;;;;19.48;8.90;;;;;;;;;;5092900;28;20193;-54
2021/04/08 02:57:30;;;;;;;17.95;9.55;;;;;;;;;;5093490;28;20182;-54
2021/04/08 03:00:05;;;;;;;16.17;8.23;;;;;;;;;;5093251;28;20779;-54
2021/04/08 03:02:33;;;;;;;17.48;7.65;;;;;;;;;;5093446;28;20197;-53
2021/04/08 03:04:59;;;;;;;17.52;8.57;;;;;;;;;;5093253;28;20217;-54
2021/04/08 03:07:29;;;;;;;21.90;8.35;;;;;;;;;;5093158;28;20195;-53
2021/04/08 03:09:56;;;;;;;15.57;8.00;;;;;;;;;;5093163;28;20188;-53
2021/04/08 03:12:22;;;;;;;16.00;7.88;;;;;;;;;;5093206;28;20622;-55
2021/04/08 03:14:51;;;;;;;18.70;8.23;;;;;;;;;;5093294;28;20532;-54
2021/04/08 03:17:19;;;;;;;20.65;9.30;;;;;;;;;;5092805;28;20161;-54
2021/04/08 03:19:45;;;;;;;18.15;8.15;;;;;;;;;;5093045;28;20198;-54
2021/04/08 03:22:13;;;;;;;21.17;8.63;;;;;;;;;;5092889;28;20252;-54
2021/04/08 03:24:41;;;;;;;22.17;8.45;;;;;;;;;;5092998;28;20193;-53
2021/04/08 03:27:08;;;;;;;20.70;7.78;;;;;;;;;;5091295;28;20288;-53
2021/04/08 03:29:36;;;;;;;19.58;8.90;;;;;;;;;;5092907;28;20769;-53
2021/04/08 03:32:02;;;;;;;18.55;8.30;;;;;;;;;;5092699;28;20165;-53
2021/04/08 03:34:30;;;;;;;11.68;6.68;;;;;;;;;;5092878;28;20217;-54
2021/04/08 03:36:57;;;;;;;13.45;7.90;;;;;;;;;;5092408;28;20203;-54
2021/04/08 03:39:23;;;;;;;24.15;8.43;;;;;;;;;;5092735;28;20215;-54
2021/04/08 03:41:49;;;;;;;14.47;7.10;;;;;;;;;;5092771;28;20170;-54
2021/04/08 03:44:16;;;;;;;17.08;8.18;;;;;;;;;;5092491;28;20461;-54
2021/04/08 03:46:44;;;;;;;23.45;8.10;;;;;;;;;;5092302;28;20197;-54
2021/04/08 03:49:11;;;;;;;19.38;7.72;;;;;;;;;;5092437;28;20194;-53
2021/04/08 03:51:37;;;;;;;24.00;10.15;;;;;;;;;;5092673;28;20193;-53
2021/04/08 03:54:06;;;;;;;27.20;9.10;;;;;;;;;;5093014;28;20563;-56
2021/04/08 03:56:34;;;;;;;12.77;8.43;;;;;;;;;;5092507;28;20165;-53
2021/04/08 03:59:00;;;;;;;23.60;9.35;;;;;;;;;;5092234;28;20261;-53
2021/04/08 04:01:27;;;;;;;12.02;7.45;;;;;;;;;;5092473;28;20165;-53
2021/04/08 04:03:53;;;;;;;13.25;7.43;;;;;;;;;;5092197;28;20181;-53
2021/04/08 04:06:20;;;;;;;10.35;6.95;;;;;;;;;;5091030;28;20186;-53
2021/04/08 04:08:46;;;;;;;20.92;8.90;;;;;;;;;;5092059;28;20702;-55
2021/04/08 04:11:12;;;;;;;11.20;6.90;;;;;;;;;;5092252;28;20157;-53
2021/04/08 04:13:39;;;;;;;21.33;8.43;;;;;;;;;;5091965;28;20437;-54
2021/04/08 04:16:06;;;;;;;14.25;6.88;;;;;;;;;;5091875;28;20170;-54
2021/04/08 04:18:33;;;;;;;23.08;8.40;;;;;;;;;;5091838;28;20260;-55
2021/04/08 04:20:59;;;;;;;16.02;6.97;;;;;;;;;;5091733;28;20607;-53
2021/04/08 04:23:25;;;;;;;14.70;7.83;;;;;;;;;;5091959;28;20252;-53
2021/04/08 04:25:51;;;;;;;17.27;7.90;;;;;;;;;;5091423;28;20440;-54
2021/04/08 04:28:17;;;;;;;11.33;7.90;;;;;;;;;;5091812;28;20774;-54
2021/04/08 04:30:43;;;;;;;13.43;6.63;;;;;;;;;;5091724;28;20828;-54
2021/04/08 04:33:09;;;;;;;14.67;6.77;;;;;;;;;;5091628;28;20400;-55
2021/04/08 04:35:35;;;;;;;19.25;6.78;;;;;;;;;;5091548;28;20503;-54
2021/04/08 04:38:01;;;;;;;15.73;6.50;;;;;;;;;;5091549;28;20726;-53
2021/04/08 04:40:27;;;;;;;10.30;6.57;;;;;;;;;;5091527;28;20177;-54
2021/04/08 04:42:53;;;;;;;16.02;6.50;;;;;;;;;;5091580;28;20400;-54
2021/04/08 04:45:19;;;;;;;13.50;6.33;;;;;;;;;;5091070;28;20180;-54
2021/04/08 04:47:45;;;;;;;37.83;7.17;;;;;;;;;;5091258;28;20890;-53
2021/04/08 04:50:12;;;;;;;14.93;7.28;;;;;;;;;;5091293;28;20516;-54
2021/04/08 04:52:39;;;;;;;17.65;7.95;;;;;;;;;;5091436;28;20169;-53
2021/04/08 04:55:07;;;;;;;21.02;7.57;;;;;;;;;;5091098;28;20176;-53
2021/04/08 04:57:33;;;;;;;10.63;5.88;;;;;;;;;;5091141;28;20169;-53
2021/04/08 04:59:59;;;;;;;13.20;7.15;;;;;;;;;;5091129;28;20181;-53
2021/04/08 05:02:25;;;;;;;16.25;7.50;;;;;;;;;;5091019;28;20196;-56
2021/04/08 05:04:51;;;;;;;20.42;6.70;;;;;;;;;;5091301;28;20193;-54
2021/04/08 05:07:21;;;;;;;11.83;6.57;;;;;;;;;;5090646;28;20558;-54
2021/04/08 05:09:47;;;;;;;13.00;6.82;;;;;;;;;;5091100;28;20412;-53
2021/04/08 05:12:13;;;;;;;19.30;6.67;;;;;;;;;;5091038;28;20786;-53
2021/04/08 05:14:39;;;;;;;18.30;7.10;;;;;;;;;;5091084;28;20395;-54
2021/04/08 05:17:06;;;;;;;9.93;6.28;;;;;;;;;;5090424;28;20408;-54
2021/04/08 05:19:33;;;;;;;9.00;4.97;;;;;;;;;;5090947;28;20188;-53
2021/04/08 05:21:59;;;;;;;10.32;5.43;;;;;;;;;;5090740;28;20355;-54
2021/04/08 05:24:25;;;;;;;11.40;6.15;;;;;;;;;;5090908;28;20166;-54
2021/04/08 05:26:51;;;;;;;10.90;6.32;;;;;;;;;;5090570;28;20200;-54
2021/04/08 05:29:17;;;;;;;11.67;5.60;;;;;;;;;;5090654;28;20683;-54
2021/04/08 05:31:43;;;;;;;11.15;5.45;;;;;;;;;;5089910;28;20392;-55
2021/04/08 05:34:09;;;;;;;12.77;5.97;;;;;;;;;;5101710;28;20233;-54
2021/04/08 05:36:35;;;;;;;13.40;7.40;;;;;;;;;;5090566;28;20403;-53
2021/04/08 05:39:01;;;;;;;12.13;6.30;;;;;;;;;;5091000;28;20628;-52
2021/04/08 05:41:27;;;;;;;11.73;6.13;;;;;;;;;;5090695;28;20400;-52
2021/04/08 05:43:53;;;;;;;13.70;6.13;;;;;;;;;;5090684;28;20162;-52
2021/04/08 05:46:19;;;;;;;20.00;5.50;;;;;;;;;;5090426;28;20442;-52
2021/04/08 05:48:45;;;;;;;17.63;5.33;;;;;;;;;;5090553;28;20466;-52
2021/04/08 05:51:11;;;;;;;10.95;5.88;;;;;;;;;;5090740;28;20392;-52
2021/04/08 05:53:37;;;;;;;11.35;5.78;;;;;;;;;;5090879;28;20582;-53
2021/04/08 05:56:03;;;;;;;12.87;5.67;;;;;;;;;;5090395;28;20166;-53
2021/04/08 05:58:29;;;;;;;12.82;5.70;;;;;;;;;;5090450;28;20488;-54
2021/04/08 06:00:56;;;;;;;13.00;4.20;;;;;;;;;;5090692;28;20173;-55
2021/04/08 06:03:23;;;;;;;8.77;5.70;;;;;;;;;;5090641;28;20410;-52
2021/04/08 06:05:49;;;;;;;8.63;4.55;;;;;;;;;;5090232;28;20276;-55
2021/04/08 06:08:15;;;;;;;11.80;5.80;;;;;;;;;;5090646;28;20225;-55
2021/04/08 06:10:41;;;;;;;12.13;5.30;;;;;;;;;;5090462;28;20391;-58
2021/04/08 06:13:07;;;;;;;8.77;5.33;;;;;;;;;;5090652;28;20880;-58
2021/04/08 06:15:33;;;;;;;15.18;5.50;;;;;;;;;;5090305;28;20407;-54
2021/04/08 06:17:59;;;;;;;12.40;6.35;;;;;;;;;;5090616;28;20685;-55
2021/04/08 06:20:25;;;;;;;12.43;5.30;;;;;;;;;;5090575;28;20172;-56
2021/04/08 06:22:52;;;;;;;10.48;5.05;;;;;;;;;;5090739;28;20405;-55
2021/04/08 06:25:18;;;;;;;8.45;5.43;;;;;;;;;;5090141;28;20668;-53
2021/04/08 06:27:44;;;;;;;7.57;4.95;;;;;;;;;;5090559;28;20166;-53
2021/04/08 06:30:10;;;;;;;7.60;4.47;;;;;;;;;;5092733;28;20177;-53
2021/04/08 06:32:38;;;;;;;15.32;4.90;;;;;;;;;;5094041;28;20397;-53
2021/04/08 06:35:04;;;;;;;14.43;5.40;;;;;;;;;;5093844;28;20713;-54
2021/04/08 06:37:30;;;;;;;15.18;6.53;;;;;;;;;;5093822;28;20170;-53
2021/04/08 06:39:56;;;;;;;8.40;4.87;;;;;;;;;;5093834;28;20214;-55
2021/04/08 06:42:22;;;;;;;7.45;4.95;;;;;;;;;;5093789;28;20396;-55
2021/04/08 06:44:52;;;;;;;8.88;5.00;;;;;;;;;;5093818;28;20171;-53
2021/04/08 06:47:20;;;;;;;12.30;6.60;;;;;;;;;;5093339;28;20189;-53
2021/04/08 06:49:51;;;;;;;9.93;5.00;;;;;;;;;;5093732;28;20186;-55
2021/04/08 06:52:18;;;;;;;12.10;5.32;;;;;;;;;;5093488;28;20637;-53
2021/04/08 06:54:44;;;;;;;12.77;5.35;;;;;;;;;;5093600;28;20742;-53
2021/04/08 06:57:11;;;;;;;11.63;5.20;;;;;;;;;;5093184;28;20197;-53
2021/04/08 06:59:37;;;;;;;17.58;5.10;;;;;;;;;;5093368;28;20210;-55
2021/04/08 07:02:03;;;;;;;10.48;5.03;;;;;;;;;;5092828;28;20170;-56
2021/04/08 07:04:29;;;;;;;10.03;5.20;;;;;;;;;;5092744;28;20184;-57
2021/04/08 07:06:55;;;;;;;14.05;5.80;;;;;;;;;;5092327;28;20495;-55
2021/04/08 07:09:21;;;;;;;11.20;6.20;;;;;;;;;;5092640;28;20263;-56
2021/04/08 07:11:47;;;;;;;8.73;5.75;;;;;;;;;;5092698;28;20540;-53
2021/04/08 07:14:13;;;;;;;12.40;6.00;;;;;;;;;;5092633;28;20165;-53
2021/04/08 07:16:39;;;;;;;12.25;7.00;;;;;;;;;;5093009;28;20168;-52
2021/04/08 07:19:06;;;;;;;9.75;6.00;;;;;;;;;;5093056;28;20213;-53
2021/04/08 07:21:37;;;;;;;9.05;6.43;;;;;;;;;;5092815;28;20171;-54
2021/04/08 07:24:08;;;;;;;15.15;7.10;;;;;;;;;;5092801;28;20251;-53
2021/04/08 07:26:54;;;;;;;15.25;6.97;;;;;;;;;;5092724;28;20210;-57
2021/04/08 07:29:21;;;;;;;11.38;7.35;;;;;;;;;;5092711;28;20184;-54
2021/04/08 07:31:47;;;;;;;13.27;7.80;;;;;;;;;;5092974;28;20165;-54
2021/04/08 07:34:16;;;;;;;9.73;7.07;;;;;;;;;;5092992;28;20164;-53
2021/04/08 07:36:42;;;;;;;9.35;7.05;;;;;;;;;;5092656;28;20184;-56
2021/04/08 07:39:15;;;;;;;10.38;7.65;;;;;;;;;;5093222;28;20181;-56
2021/04/08 07:41:42;;;;;;;11.68;7.53;;;;;;;;;;5093010;28;20589;-56
2021/04/08 07:44:09;;;;;;;12.15;7.70;;;;;;;;;;5092611;28;20174;-56
2021/04/08 07:46:35;;;;;;;13.43;7.50;;;;;;;;;;5092359;28;20713;-56
2021/04/08 07:49:01;;;;;;;11.30;7.50;;;;;;;;;;5092845;28;20201;-56
2021/04/08 07:51:28;;;;;;;12.05;7.65;;;;;;;;;;5092612;28;20434;-56
2021/04/08 07:54:29;;;;;;;19.95;7.93;;;;;;;;;;5092588;28;20567;-56
2021/04/08 07:56:55;;;;;;;16.30;8.15;;;;;;;;;;5049675;28;20552;-55
2021/04/08 07:59:26;;;;;;;16.93;9.07;;;;;;;;;;5083488;28;20220;-56
2021/04/08 08:02:00;;;;;;;9.60;8.18;;;;;;;;;;5092447;28;20404;-56
2021/04/08 08:04:26;;;;;;;18.17;8.73;;;;;;;;;;5092489;28;20200;-56
2021/04/08 08:06:53;;;;;;;14.48;7.65;;;;;;;;;;5091824;28;20221;-55
2021/04/08 08:09:20;;;;;;;12.43;6.35;;;;;;;;;;5092208;28;20668;-56
2021/04/08 08:11:47;;;;;;;12.68;7.60;;;;;;;;;;5092141;28;20214;-56
2021/04/08 08:14:13;;;;;;;11.70;7.53;;;;;;;;;;5092341;28;20189;-56
2021/04/08 08:16:39;;;;;;;13.60;7.23;;;;;;;;;;5091837;28;20171;-56
2021/04/08 08:19:05;;;;;;;7.10;6.40;;;;;;;;;;5092069;28;20412;-56
2021/04/08 08:21:35;;;;;;;12.03;6.93;;;;;;;;;;5091881;28;20162;-57
2021/04/08 08:24:05;;;;;;;8.77;5.70;;;;;;;;;;5091930;28;20394;-56
2021/04/08 08:26:33;;;;;;;9.53;6.20;;;;;;;;;;5091384;28;20443;-56
2021/04/08 08:29:02;;;;;;;14.10;6.10;;;;;;;;;;5091737;28;20419;-56
2021/04/08 08:31:46;;;;;;;11.50;5.30;;;;;;;;;;5091692;28;20388;-57
2021/04/08 08:34:17;;;;;;;8.47;5.77;;;;;;;;;;5091344;28;20395;-56
2021/04/08 08:36:44;;;;;;;7.60;6.40;;;;;;;;;;5091161;28;20410;-57
2021/04/08 08:39:11;;;;;;;10.03;5.90;;;;;;;;;;5091542;28;20414;-56
2021/04/08 08:41:38;;;;;;;10.20;5.93;;;;;;;;;;5091458;28;20785;-56
2021/04/08 08:44:05;;;;;;;8.07;6.00;;;;;;;;;;5091290;28;20417;-56
2021/04/08 08:46:32;;;;;;;11.67;6.40;;;;;;;;;;5091037;28;20603;-57
2021/04/08 08:48:59;;;;;;;9.87;6.17;;;;;;;;;;5091136;28;20423;-57
2021/04/08 08:51:25;;;;;;;7.83;6.00;;;;;;;;;;5091088;28;20399;-56
2021/04/08 08:53:52;;;;;;;5.63;5.00;;;;;;;;;;5091025;28;20405;-56
2021/04/08 08:56:19;;;;;;;8.40;6.07;;;;;;;;;;5091002;28;20402;-56
2021/04/08 08:58:45;;;;;;;6.47;4.90;;;;;;;;;;5090831;28;20446;-56
2021/04/08 09:01:12;;;;;;;7.43;4.60;;;;;;;;;;5091174;28;20814;-56
2021/04/08 09:03:38;;;;;;;9.33;5.13;;;;;;;;;;5090883;28;20411;-56
2021/04/08 09:06:07;;;;;;;10.97;5.67;;;;;;;;;;5090763;28;20460;-56
2021/04/08 09:08:36;;;;;;;8.83;5.37;;;;;;;;;;5090904;28;20426;-56
2021/04/08 09:11:02;;;;;;;5.83;5.23;;;;;;;;;;5090921;28;20391;-56
2021/04/08 09:13:28;;;;;;;6.73;3.60;;;;;;;;;;5090932;28;20494;-57
2021/04/08 09:15:58;;;;;;;5.37;3.70;;;;;;;;;;5090471;28;20407;-56
2021/04/08 09:18:24;;;;;;;8.50;4.23;;;;;;;;;;5091015;28;20511;-57
2021/04/08 09:20:50;;;;;;;6.57;4.00;;;;;;;;;;5090798;28;20482;-56
2021/04/08 09:23:19;;;;;;;5.70;3.07;;;;;;;;;;5090924;28;20841;-56
2021/04/08 09:25:56;;;;;;;5.60;3.23;;;;;;;;;;5090383;28;20887;-56
2021/04/08 09:28:22;;;;;;;4.87;4.20;;;;;;;;;;5090656;28;20838;-56
2021/04/08 09:31:05;;;;;;;4.70;3.13;;;;;;;;;;5090615;28;20403;-56
2021/04/08 09:33:57;;;;;;;3.20;2.90;;;;;;;;;;5090862;28;20901;-56
2021/04/08 09:36:26;;;;;;;6.13;3.70;;;;;;;;;;5086272;28;20416;-57
2021/04/08 09:39:14;;;;;;;5.33;2.70;;;;;;;;;;5090740;28;20484;-56
2021/04/08 09:41:49;;;;;;;7.20;3.37;;;;;;;;;;5090527;28;20411;-56
2021/04/08 09:44:16;;;;;;;4.80;3.30;;;;;;;;;;5090893;28;20403;-56
2021/04/08 09:46:43;;;;;;;6.60;3.23;;;;;;;;;;5090204;28;20955;-57
2021/04/08 09:49:10;;;;;;;3.70;3.03;;;;;;;;;;5090636;28;20429;-57
2021/04/08 09:51:37;;;;;;;7.27;2.80;;;;;;;;;;5090588;28;20393;-56
2021/04/08 09:54:05;;;;;;;10.20;2.57;;;;;;;;;;5090495;28;20392;-56
2021/04/08 09:56:43;;;;;;;3.20;2.13;;;;;;;;;;5090284;28;20768;-56
2021/04/08 09:59:09;;;;;;;4.07;2.63;;;;;;;;;;5090296;28;20466;-55
2021/04/08 10:01:35;;;;;;;5.70;2.80;;;;;;;;;;5090470;28;20871;-56
2021/04/08 10:04:15;;;;;;;2.20;2.07;;;;;;;;;;5090942;28;20491;-56
2021/04/08 10:06:41;;;;;;;2.27;1.97;;;;;;;;;;5075905;28;20458;-56
2021/04/08 10:09:08;;;;;;;3.20;2.30;;;;;;;;;;5094238;28;20979;-56
2021/04/08 10:11:35;;;;;;;3.53;2.23;;;;;;;;;;5094355;28;20399;-56
2021/04/08 10:14:01;;;;;;;3.93;2.57;;;;;;;;;;5094231;28;20438;-56
2021/04/08 10:16:27;;;;;;;2.30;2.10;;;;;;;;;;5093905;28;20442;-56
2021/04/08 10:19:00;;;;;;;3.37;2.00;;;;;;;;;;5094060;28;20427;-56
2021/04/08 10:21:26;;;;;;;5.50;2.47;;;;;;;;;;5094147;28;20418;-56
2021/04/08 10:23:53;;;;;;;3.20;2.17;;;;;;;;;;5094209;28;20498;-56
2021/04/08 10:26:19;;;;;;;1.87;1.77;;;;;;;;;;5093489;28;20979;-56
2021/04/08 10:28:52;;;;;;;3.87;2.53;;;;;;;;;;5094284;28;20430;-56
2021/04/08 10:31:23;;;;;;;3.30;2.33;;;;;;;;;;5075647;28;20421;-56
2021/04/08 10:34:01;;;;;;;3.17;2.87;;;;;;;;;;5093821;28;20803;-56
2021/04/08 10:36:29;;;;;;;7.73;3.20;;;;;;;;;;5093507;28;20481;-56
2021/04/08 10:39:14;;;;;;;5.60;2.93;;;;;;;;;;5093759;28;21031;-57
2021/04/08 10:41:41;;;;;;;5.33;3.27;;;;;;;;;;5093586;28;20485;-56
2021/04/08 10:44:23;;;;;;;4.00;3.43;;;;;;;;;;5093678;28;20486;-56
2021/04/08 10:46:49;;;;;;;6.57;4.10;;;;;;;;;;5093146;28;20446;-56
2021/04/08 10:49:23;;;;;;;4.13;3.83;;;;;;;;;;5093543;28;20468;-56
2021/04/08 10:51:49;;;;;;;4.70;3.60;;;;;;;;;;5093331;28;20422;-56
2021/04/08 10:54:15;;;;;;;5.40;3.60;;;;;;;;;;5093380;28;20764;-56
2021/04/08 10:56:41;;;;;;;4.57;4.00;;;;;;;;;;5093246;28;20407;-56
2021/04/08 10:59:20;;;;;;;4.80;3.80;;;;;;;;;;5093201;28;20534;-56
2021/04/08 11:01:47;;;;;;;4.97;3.60;;;;;;;;;;5093801;28;20399;-56
2021/04/08 11:04:13;;;;;;;4.90;3.50;;;;;;;;;;5093252;28;20403;-56
2021/04/08 11:06:39;;;;;;;5.60;3.80;;;;;;;;;;5092859;28;20449;-56
2021/04/08 11:09:05;;;;;;;3.93;3.63;;;;;;;;;;5092763;28;20422;-56
2021/04/08 11:11:31;;;;;;;5.97;4.10;;;;;;;;;;5093248;28;20396;-56
2021/04/08 11:13:57;;;;;;;9.17;4.50;;;;;;;;;;5093069;28;20452;-56
2021/04/08 11:16:23;;;;;;;6.13;4.60;;;;;;;;;;5092640;28;21193;-56
2021/04/08 11:18:50;;;;;;;6.00;4.43;;;;;;;;;;5093381;28;20433;-56
2021/04/08 11:21:16;;;;;;;4.50;4.20;;;;;;;;;;5093398;28;20916;-56
2021/04/08 11:23:42;;;;;;;4.43;4.00;;;;;;;;;;5093334;28;20395;-56
2021/04/08 11:26:09;;;;;;;4.77;4.30;;;;;;;;;;5091462;28;20534;-55
2021/04/08 11:28:47;;;;;;;5.67;4.13;;;;;;;;;;5093159;28;20419;-56
2021/04/08 11:31:14;;;;;;;6.33;4.37;;;;;;;;;;5092836;28;20399;-56
2021/04/08 11:33:40;;;;;;;8.53;3.93;;;;;;;;;;5092920;28;20801;-56
2021/04/08 11:36:16;;;;;;;7.10;4.17;;;;;;;;;;5092625;28;20399;-56
2021/04/08 11:38:42;;;;;;;4.30;4.00;;;;;;;;;;5092587;28;20814;-56
2021/04/08 11:41:09;;;;;;;6.43;4.10;;;;;;;;;;5092871;28;20403;-56
2021/04/08 11:43:42;;;;;;;3.83;3.50;;;;;;;;;;5092614;28;20398;-57
2021/04/08 11:46:27;;;;;;;4.70;4.30;;;;;;;;;;5092064;28;20442;-56
2021/04/08 11:48:54;;;;;;;7.23;4.23;;;;;;;;;;5096328;28;20452;-56
2021/04/08 11:51:22;;;;;;;5.57;4.23;;;;;;;;;;5094583;28;20421;-56
2021/04/08 11:53:48;;;;;;;5.53;5.03;;;;;;;;;;5092379;28;20399;-56
2021/04/08 11:56:25;;;;;;;5.80;4.17;;;;;;;;;;5092013;28;20411;-57
2021/04/08 11:58:51;;;;;;;5.80;4.67;;;;;;;;;;5091945;28;20430;-56
2021/04/08 12:01:18;;;;;;;5.70;4.23;;;;;;;;;;5091902;28;20887;-56
2021/04/08 12:03:45;;;;;;;4.93;4.40;;;;;;;;;;5096541;28;20469;-57
2021/04/08 12:06:12;;;;;;;4.40;4.10;;;;;;;;;;5098457;28;20433;-57
2021/04/08 12:08:39;;;;;;;4.80;4.40;;;;;;;;;;5092034;28;20459;-56
2021/04/08 12:11:05;;;;;;;4.77;4.00;;;;;;;;;;5092119;28;20396;-57
2021/04/08 12:13:31;;;;;;;8.80;4.63;;;;;;;;;;5091966;28;20476;-57
2021/04/08 12:15:57;;;;;;;9.30;4.47;;;;;;;;;;5091759;28;20808;-56
2021/04/08 12:18:24;;;;;;;4.63;4.33;;;;;;;;;;5091844;28;20457;-56
2021/04/08 12:20:52;;;;;;;5.30;4.80;;;;;;;;;;5091992;28;20450;-56
2021/04/08 12:23:20;;;;;;;5.27;4.87;;;;;;;;;;5091790;28;20442;-56
2021/04/08 12:25:48;;;;;;;5.03;4.63;;;;;;;;;;5091439;28;20950;-57
2021/04/08 12:28:14;;;;;;;4.43;4.10;;;;;;;;;;5090856;28;20935;-56
2021/04/08 12:30:56;;;;;;;5.50;4.17;;;;;;;;;;5091810;28;20490;-57
2021/04/08 12:33:22;;;;;;;4.80;4.30;;;;;;;;;;5091524;28;20430;-56
2021/04/08 12:35:48;;;;;;;4.77;4.30;;;;;;;;;;5091481;28;20401;-57
2021/04/08 12:38:15;;;;;;;5.37;4.23;;;;;;;;;;5091350;28;20789;-56
2021/04/08 12:40:41;;;;;;;5.60;4.87;;;;;;;;;;5091645;28;20412;-57
2021/04/08 12:43:07;;;;;;;7.53;4.53;;;;;;;;;;5091493;28;20407;-56
2021/04/08 12:45:33;;;;;;;8.83;5.43;;;;;;;;;;5090131;28;20408;-56
2021/04/08 12:47:59;;;;;;;7.70;6.33;;;;;;;;;;5090769;28;20935;-56
2021/04/08 12:50:25;;;;;;;7.20;5.00;;;;;;;;;;5092467;28;20422;-56
2021/04/08 12:52:51;;;;;;;5.33;4.93;;;;;;;;;;5101155;28;20433;-56
2021/04/08 12:55:17;;;;;;;6.17;4.90;;;;;;;;;;5090940;28;20406;-56
2021/04/08 12:57:44;;;;;;;7.03;4.63;;;;;;;;;;5091308;28;20515;-57
2021/04/08 13:00:10;;;;;;;5.10;4.60;;;;;;;;;;5090963;28;20446;-57
2021/04/08 13:02:36;;;;;;;8.90;5.30;;;;;;;;;;5091206;28;20450;-57
2021/04/08 13:05:02;;;;;;;5.93;5.37;;;;;;;;;;5090893;28;20440;-57
2021/04/08 13:07:28;;;;;;;8.20;5.30;;;;;;;;;;5090971;28;20812;-57
2021/04/08 13:09:54;;;;;;;5.43;4.93;;;;;;;;;;5090960;28;20499;-57
2021/04/08 13:12:20;;;;;;;7.03;5.40;;;;;;;;;;5091108;28;20407;-56
2021/04/08 13:14:46;;;;;;;5.50;5.03;;;;;;;;;;5091129;28;20407;-57
2021/04/08 13:17:12;;;;;;;5.40;4.90;;;;;;;;;;5090567;28;20387;-57
2021/04/08 13:19:38;;;;;;;6.40;5.80;;;;;;;;;;5091026;28;20491;-56
2021/04/08 13:22:04;;;;;;;6.10;5.47;;;;;;;;;;5090799;28;21139;-56
2021/04/08 13:24:30;;;;;;;5.90;5.40;;;;;;;;;;5091173;28;20398;-56
2021/04/08 13:26:56;;;;;;;5.57;4.97;;;;;;;;;;5090736;28;21045;-56
2021/04/08 13:29:22;;;;;;;6.57;5.50;;;;;;;;;;5091096;28;20425;-56
2021/04/08 13:31:48;;;;;;;10.73;5.50;;;;;;;;;;5091080;28;20395;-56
2021/04/08 13:34:14;;;;;;;6.50;5.97;;;;;;;;;;5091220;28;20871;-56
2021/04/08 13:36:40;;;;;;;6.40;5.80;;;;;;;;;;5090717;28;20414;-56
2021/04/08 13:39:06;;;;;;;5.73;5.33;;;;;;;;;;5095854;28;20503;-56
2021/04/08 13:41:32;;;;;;;10.40;6.03;;;;;;;;;;5097532;28;20506;-56
2021/04/08 13:43:58;;;;;;;6.53;6.03;;;;;;;;;;5097359;28;20485;-56
2021/04/08 13:46:24;;;;;;;14.43;6.20;;;;;;;;;;5097283;28;20435;-56
2021/04/08 13:48:50;;;;;;;6.10;5.60;;;;;;;;;;5097217;28;20517;-56
2021/04/08 13:51:16;;;;;;;5.83;5.23;;;;;;;;;;5097398;28;20406;-56
2021/04/08 13:53:42;;;;;;;7.20;6.40;;;;;;;;;;5097388;28;20816;-56
2021/04/08 13:56:08;;;;;;;7.63;6.33;;;;;;;;;;5097204;28;20803;-56
2021/04/08 13:58:33;;;;;;;6.83;5.70;;;;;;;;;;5097148;28;20439;-57
2021/04/08 14:00:59;;;;;;;6.80;6.23;;;;;;;;;;5097526;28;20410;-56
2021/04/08 14:03:25;;;;;;;6.93;6.23;;;;;;;;;;5097287;28;20410;-57
2021/04/08 14:05:51;;;;;;;6.20;5.70;;;;;;;;;;5097012;28;21029;-57
2021/04/08 14:08:17;;;;;;;7.47;6.60;;;;;;;;;;5097158;28;20523;-56
2021/04/08 14:10:43;;;;;;;7.30;6.60;;;;;;;;;;5097366;28;20402;-56
2021/04/08 14:13:09;;;;;;;9.03;5.90;;;;;;;;;;5097308;28;20395;-56
2021/04/08 14:15:35;;;;;;;7.70;5.70;;;;;;;;;;5097049;28;20868;-56
2021/04/08 14:18:01;;;;;;;8.20;6.27;;;;;;;;;;5097211;28;20494;-56
2021/04/08 14:20:27;;;;;;;14.10;6.20;;;;;;;;;;5097019;28;20891;-56
2021/04/08 14:22:53;;;;;;;7.40;6.70;;;;;;;;;;5096000;28;20478;-57
2021/04/08 14:25:20;;;;;;;6.33;5.77;;;;;;;;;;5096610;28;20912;-56
2021/04/08 14:27:46;;;;;;;9.20;6.20;;;;;;;;;;5096950;28;20945;-56
2021/04/08 14:30:12;;;;;;;7.70;6.10;;;;;;;;;;5096822;28;20456;-56
2021/04/08 14:32:38;;;;;;;8.63;6.20;;;;;;;;;;5096995;28;20435;-56
2021/04/08 14:35:06;;;;;;;10.70;7.27;;;;;;;;;;5096465;28;20398;-56
2021/04/08 14:37:32;;;;;;;10.20;7.47;;;;;;;;;;5096995;28;20916;-56
2021/04/08 14:39:58;;;;;;;9.83;7.60;;;;;;;;;;5096637;28;20432;-56